createdAt,value
2017-09-16T00:01:46.572Z,100808.70
2017-09-16T00:04:14.307Z,100802.79
2017-09-16T00:06:41.989Z,100803.25
2017-09-16T00:09:09.742Z,100802.60
2017-09-16T00:11:37.419Z,100805.92
2017-09-16T00:14:05.161Z,100805.52
2017-09-16T00:16:32.847Z,100802.36
2017-09-16T00:19:00.627Z,100805.36
2017-09-16T00:21:28.310Z,100796.39
2017-09-16T00:23:55.970Z,100795.77
2017-09-16T00:26:23.675Z,100800.05
2017-09-16T00:28:51.404Z,100793.61
2017-09-16T00:31:19.099Z,100791.33
2017-09-16T00:33:46.837Z,100795.74
2017-09-16T00:36:14.574Z,100788.47
2017-09-16T00:38:42.293Z,100786.20
2017-09-16T00:41:09.978Z,100781.88
2017-09-16T00:43:37.707Z,100788.88
2017-09-16T00:46:05.406Z,100784.34
2017-09-16T00:48:33.123Z,100786.95
2017-09-16T00:51:00.859Z,100787.41
2017-09-16T00:53:28.639Z,100781.06
2017-09-16T00:55:56.325Z,100784.59
2017-09-16T00:58:24.075Z,100781.64
2017-09-16T01:00:51.750Z,100775.55
2017-09-16T01:03:19.485Z,100774.67
2017-09-16T01:05:47.220Z,100773.88
2017-09-16T01:08:14.920Z,100777.06
2017-09-16T01:10:42.672Z,100770.55
2017-09-16T01:13:10.365Z,100769.34
2017-09-16T01:15:38.093Z,100775.06
2017-09-16T01:18:05.779Z,100770.77
2017-09-16T01:20:33.539Z,100782.27
2017-09-16T01:23:01.245Z,100775.03
2017-09-16T01:25:28.983Z,100774.31
2017-09-16T01:27:56.725Z,100767.24
2017-09-16T01:30:24.479Z,100771.95
2017-09-16T01:32:52.199Z,100774.17
2017-09-16T01:35:19.996Z,100771.81
2017-09-16T01:37:47.685Z,100771.36
2017-09-16T01:40:15.429Z,100771.29
2017-09-16T01:42:43.124Z,100769.73
2017-09-16T01:45:10.852Z,100772.89
2017-09-16T01:47:38.524Z,100766.75
2017-09-16T01:50:06.255Z,100766.79
2017-09-16T01:52:33.949Z,100769.04
2017-09-16T01:55:01.673Z,100768.77
2017-09-16T01:57:29.355Z,100775.83
2017-09-16T01:59:57.085Z,100769.70
2017-09-16T02:02:24.783Z,100777.28
2017-09-16T02:04:52.513Z,100777.56
2017-09-16T02:07:20.184Z,100770.84
2017-09-16T02:09:47.916Z,100774.69
2017-09-16T02:12:15.621Z,100770.08
2017-09-16T02:14:43.370Z,100770.25
2017-09-16T02:17:11.066Z,100778.88
2017-09-16T02:19:38.798Z,100777.45
2017-09-16T02:22:06.483Z,100778.15
2017-09-16T02:24:34.213Z,100782.41
2017-09-16T02:27:01.906Z,100783.63
2017-09-16T02:29:29.638Z,100779.64
2017-09-16T02:31:57.330Z,100781.55
2017-09-16T02:34:25.064Z,100784.01
2017-09-16T02:36:52.787Z,100787.47
2017-09-16T02:39:20.534Z,100787.33
2017-09-16T02:41:48.227Z,100783.70
2017-09-16T02:44:15.929Z,100787.30
2017-09-16T02:46:43.675Z,100789.69
2017-09-16T02:49:11.383Z,100786.22
2017-09-16T02:51:39.156Z,100787.75
2017-09-16T02:54:06.838Z,100791.88
2017-09-16T02:56:34.597Z,100787.13
2017-09-16T02:59:02.329Z,100781.12
2017-09-16T03:01:30.046Z,100785.81
2017-09-16T03:03:57.727Z,100786.53
2017-09-16T03:06:25.479Z,100783.08
2017-09-16T03:08:53.165Z,100780.41
2017-09-16T03:11:20.906Z,100785.87
2017-09-16T03:13:48.606Z,100783.73
2017-09-16T03:16:16.385Z,100784.59
2017-09-16T03:18:44.113Z,100786.04
2017-09-16T03:21:11.874Z,100786.48
2017-09-16T03:23:39.570Z,100779.45
2017-09-16T03:26:10.586Z,100786.06
2017-09-16T03:28:38.277Z,100792.94
2017-09-16T03:31:06.014Z,100790.42
2017-09-16T03:33:33.708Z,100792.54
2017-09-16T03:36:01.505Z,100788.28
2017-09-16T03:38:29.198Z,100795.12
2017-09-16T03:40:57.042Z,100791.45
2017-09-16T03:43:24.754Z,100789.23
2017-09-16T03:45:52.500Z,100791.83
2017-09-16T03:48:20.195Z,100786.98
2017-09-16T03:50:47.919Z,100795.08
2017-09-16T03:53:15.595Z,100791.38
2017-09-16T03:55:43.329Z,100790.13
2017-09-16T03:58:11.000Z,100796.66
2017-09-16T04:00:38.713Z,100789.60
2017-09-16T04:03:06.423Z,100789.66
2017-09-16T04:05:34.154Z,100785.42
2017-09-16T04:08:01.863Z,100786.64
2017-09-16T04:10:29.574Z,100790.91
2017-09-16T04:12:57.276Z,100789.52
2017-09-16T04:15:25.041Z,100790.27
2017-09-16T04:17:52.746Z,100794.76
2017-09-16T04:20:20.481Z,100794.59
2017-09-16T04:22:48.174Z,100800.38
2017-09-16T04:25:15.941Z,100793.67
2017-09-16T04:27:43.643Z,100800.09
2017-09-16T04:30:11.341Z,100805.02
2017-09-16T04:32:39.097Z,100802.87
2017-09-16T04:35:06.832Z,100807.95
2017-09-16T04:37:34.593Z,100812.31
2017-09-16T04:40:02.312Z,100810.90
2017-09-16T04:42:30.063Z,100809.93
2017-09-16T04:44:57.755Z,100811.70
2017-09-16T04:47:25.523Z,100811.74
2017-09-16T04:49:53.261Z,100814.31
2017-09-16T04:52:21.022Z,100816.30
2017-09-16T04:54:48.721Z,100815.95
2017-09-16T04:57:16.476Z,100816.13
2017-09-16T04:59:44.166Z,100822.05
2017-09-16T05:02:11.913Z,100818.97
2017-09-16T05:04:39.594Z,100822.88
2017-09-16T05:07:07.355Z,100823.05
2017-09-16T05:09:35.069Z,100817.55
2017-09-16T05:12:02.825Z,100824.61
2017-09-16T05:14:30.552Z,100828.14
2017-09-16T05:16:58.312Z,100824.81
2017-09-16T05:19:25.994Z,100823.98
2017-09-16T05:21:53.795Z,100829.08
2017-09-16T05:24:21.500Z,100824.61
2017-09-16T05:26:49.248Z,100820.55
2017-09-16T05:29:16.973Z,100825.89
2017-09-16T05:31:44.733Z,100825.52
2017-09-16T05:34:12.443Z,100831.61
2017-09-16T05:36:40.241Z,100831.23
2017-09-16T05:39:07.954Z,100828.39
2017-09-16T05:41:35.679Z,100830.02
2017-09-16T05:44:03.384Z,100829.00
2017-09-16T05:46:31.142Z,100834.41
2017-09-16T05:48:58.837Z,100836.00
2017-09-16T05:51:26.504Z,100834.49
2017-09-16T05:53:54.153Z,100835.33
2017-09-16T05:56:21.900Z,100836.90
2017-09-16T05:58:49.637Z,100829.23
2017-09-16T06:01:17.404Z,100828.30
2017-09-16T06:03:45.125Z,100822.89
2017-09-16T06:06:12.913Z,100828.48
2017-09-16T06:08:40.607Z,100823.92
2017-09-16T06:11:08.331Z,100826.94
2017-09-16T06:13:36.085Z,100834.19
2017-09-16T06:16:03.809Z,100832.59
2017-09-16T06:18:31.563Z,100838.67
2017-09-16T06:20:59.259Z,100836.36
2017-09-16T06:23:27.018Z,100837.46
2017-09-16T06:25:54.736Z,100845.59
2017-09-16T06:28:22.479Z,100841.09
2017-09-16T06:30:50.182Z,100836.28
2017-09-16T06:33:17.934Z,100835.55
2017-09-16T06:35:45.681Z,100832.70
2017-09-16T06:38:13.477Z,100836.05
2017-09-16T06:40:41.236Z,100838.00
2017-09-16T06:43:08.996Z,100834.42
2017-09-16T06:45:36.697Z,100840.26
2017-09-16T06:48:04.451Z,100840.40
2017-09-16T06:50:32.176Z,100844.12
2017-09-16T06:52:59.949Z,100841.64
2017-09-16T06:55:27.689Z,100851.48
2017-09-16T06:57:55.447Z,100855.99
2017-09-16T07:00:23.148Z,100853.22
2017-09-16T07:02:50.892Z,100859.67
2017-09-16T07:05:18.607Z,100855.81
2017-09-16T07:07:46.362Z,100862.51
2017-09-16T07:10:14.077Z,100857.55
2017-09-16T07:12:41.742Z,100860.09
2017-09-16T07:15:09.460Z,100858.74
2017-09-16T07:17:37.243Z,100858.62
2017-09-16T07:20:04.964Z,100865.83
2017-09-16T07:22:32.737Z,100861.33
2017-09-16T07:25:00.480Z,100862.25
2017-09-16T07:27:28.250Z,100868.98
2017-09-16T07:29:55.948Z,100869.37
2017-09-16T07:32:23.713Z,100867.43
2017-09-16T07:34:51.488Z,100872.44
2017-09-16T07:37:19.220Z,100872.33
2017-09-16T07:39:46.939Z,100874.72
2017-09-16T07:42:14.695Z,100874.37
2017-09-16T07:44:42.405Z,100879.80
2017-09-16T07:47:10.200Z,100881.91
2017-09-16T07:49:37.897Z,100884.20
2017-09-16T07:52:05.628Z,100886.41
2017-09-16T07:54:33.360Z,100891.39
2017-09-16T07:57:01.088Z,100893.29
2017-09-16T07:59:28.873Z,100887.91
2017-09-16T08:01:56.593Z,100892.98
2017-09-16T08:04:24.248Z,100893.44
2017-09-16T08:06:51.946Z,100888.60
2017-09-16T08:09:19.726Z,100891.60
2017-09-16T08:11:47.433Z,100890.81
2017-09-16T08:14:15.216Z,100898.08
2017-09-16T08:16:42.907Z,100893.34
2017-09-16T08:19:10.673Z,100889.70
2017-09-16T08:21:38.400Z,100892.83
2017-09-16T08:24:06.154Z,100892.06
2017-09-16T08:26:33.870Z,100902.17
2017-09-16T08:29:01.630Z,100897.08
2017-09-16T08:31:29.577Z,100901.52
2017-09-16T08:33:57.303Z,100899.82
2017-09-16T08:36:25.050Z,100895.52
2017-09-16T08:38:52.838Z,100897.75
2017-09-16T08:41:20.541Z,100895.00
2017-09-16T08:43:48.337Z,100892.67
2017-09-16T08:46:16.035Z,100895.22
2017-09-16T08:48:43.771Z,100895.38
2017-09-16T08:51:11.489Z,100891.01
2017-09-16T08:53:39.233Z,100894.68
2017-09-16T08:56:06.946Z,100892.13
2017-09-16T08:58:34.687Z,100895.55
2017-09-16T09:01:02.410Z,100883.91
2017-09-16T09:03:30.198Z,100890.50
2017-09-16T09:05:57.882Z,100894.50
2017-09-16T09:08:25.670Z,100888.94
2017-09-16T09:10:53.357Z,100892.52
2017-09-16T09:13:21.266Z,100894.63
2017-09-16T09:15:49.012Z,100895.32
2017-09-16T09:18:16.817Z,100899.34
2017-09-16T09:20:44.502Z,100897.91
2017-09-16T09:23:12.350Z,100903.73
2017-09-16T09:25:40.062Z,100904.50
2017-09-16T09:28:07.807Z,100895.16
2017-09-16T09:30:35.510Z,100904.55
2017-09-16T09:33:03.201Z,100896.30
2017-09-16T09:35:31.006Z,100900.98
2017-09-16T09:37:59.162Z,100907.67
2017-09-16T09:40:26.960Z,100899.62
2017-09-16T09:42:54.695Z,100901.08
2017-09-16T09:45:22.452Z,100900.66
2017-09-16T09:47:50.146Z,100900.70
2017-09-16T09:50:17.894Z,100906.37
2017-09-16T09:52:45.608Z,100906.05
2017-09-16T09:55:13.388Z,100901.84
2017-09-16T09:57:41.104Z,100909.27
2017-09-16T10:00:08.845Z,100902.14
2017-09-16T10:02:36.575Z,100901.19
2017-09-16T10:05:04.339Z,100898.76
2017-09-16T10:07:32.080Z,100899.57
2017-09-16T10:09:59.835Z,100899.80
2017-09-16T10:12:27.512Z,100907.69
2017-09-16T10:14:55.282Z,100897.77
2017-09-16T10:17:22.975Z,100905.92
2017-09-16T10:19:50.759Z,100901.47
2017-09-16T10:22:18.453Z,100906.19
2017-09-16T10:24:46.233Z,100901.66
2017-09-16T10:27:13.972Z,100902.97
2017-09-16T10:29:41.719Z,100905.55
2017-09-16T10:32:09.424Z,100900.94
2017-09-16T10:34:37.169Z,100903.04
2017-09-16T10:37:04.915Z,100913.80
2017-09-16T10:39:32.706Z,100905.56
2017-09-16T10:42:00.400Z,100906.48
2017-09-16T10:44:28.174Z,100903.92
2017-09-16T10:46:56.139Z,100900.48
2017-09-16T10:49:23.878Z,100907.91
2017-09-16T10:51:51.572Z,100908.78
2017-09-16T10:54:19.310Z,100908.61
2017-09-16T10:56:47.027Z,100907.51
2017-09-16T10:59:14.836Z,100902.84
2017-09-16T11:01:42.542Z,100914.12
2017-09-16T11:04:10.294Z,100903.48
2017-09-16T11:06:37.987Z,100900.89
2017-09-16T11:09:05.752Z,100908.25
2017-09-16T11:11:33.569Z,100913.70
2017-09-16T11:14:01.281Z,100906.08
2017-09-16T11:16:29.028Z,100903.12
2017-09-16T11:18:56.656Z,100905.11
2017-09-16T11:21:24.414Z,100910.34
2017-09-16T11:23:52.124Z,100911.81
2017-09-16T11:26:19.876Z,100908.61
2017-09-16T11:28:47.575Z,100909.20
2017-09-16T11:31:15.398Z,100912.56
2017-09-16T11:33:43.097Z,100913.17
2017-09-16T11:36:10.926Z,100902.29
2017-09-16T11:38:38.619Z,100907.58
2017-09-16T11:41:06.376Z,100907.41
2017-09-16T11:43:34.088Z,100910.59
2017-09-16T11:46:01.904Z,100912.38
2017-09-16T11:48:29.639Z,100912.14
2017-09-16T11:50:57.424Z,100912.80
2017-09-16T11:53:25.133Z,100905.34
2017-09-16T11:55:52.895Z,100904.84
2017-09-16T11:58:20.521Z,100907.44
2017-09-16T12:00:48.274Z,100900.30
2017-09-16T12:03:15.979Z,100897.73
2017-09-16T12:05:43.640Z,100901.45
2017-09-16T12:08:11.384Z,100893.57
2017-09-16T12:10:39.159Z,100890.19
2017-09-16T12:13:06.916Z,100883.87
2017-09-16T12:15:34.689Z,100884.79
2017-09-16T12:18:02.407Z,100889.14
2017-09-16T12:20:30.174Z,100885.14
2017-09-16T12:22:57.902Z,100888.83
2017-09-16T12:25:25.651Z,100886.24
2017-09-16T12:27:53.343Z,100891.94
2017-09-16T12:30:21.101Z,100892.82
2017-09-16T12:32:48.791Z,100893.52
2017-09-16T12:35:16.582Z,100891.03
2017-09-16T12:37:44.268Z,100890.86
2017-09-16T12:40:12.009Z,100883.70
2017-09-16T12:42:39.715Z,100883.31
2017-09-16T12:45:07.477Z,100885.19
2017-09-16T12:47:35.175Z,100889.28
2017-09-16T12:50:02.964Z,100886.89
2017-09-16T12:52:30.707Z,100887.60
2017-09-16T12:54:58.439Z,100888.65
2017-09-16T12:57:26.173Z,100888.42
2017-09-16T12:59:53.895Z,100886.64
2017-09-16T13:02:21.661Z,100891.22
2017-09-16T13:04:49.350Z,100891.94
2017-09-16T13:07:17.108Z,100886.77
2017-09-16T13:09:44.855Z,100891.84
2017-09-16T13:12:12.640Z,100896.78
2017-09-16T13:14:40.341Z,100893.44
2017-09-16T13:17:08.109Z,100897.34
2017-09-16T13:19:35.809Z,100896.59
2017-09-16T13:22:03.561Z,100894.41
2017-09-16T13:24:31.316Z,100890.77
2017-09-16T13:26:59.064Z,100895.06
2017-09-16T13:29:26.766Z,100896.09
2017-09-16T13:31:54.558Z,100897.45
2017-09-16T13:34:22.306Z,100898.31
2017-09-16T13:36:50.123Z,100900.03
2017-09-16T13:39:17.832Z,100898.88
2017-09-16T13:41:45.610Z,100907.20
2017-09-16T13:44:13.316Z,100901.55
2017-09-16T13:46:41.094Z,100897.24
2017-09-16T13:49:08.787Z,100901.14
2017-09-16T13:51:36.556Z,100902.20
2017-09-16T13:54:04.286Z,100896.92
2017-09-16T13:56:32.038Z,100896.38
2017-09-16T13:58:59.740Z,100899.08
2017-09-16T14:01:27.490Z,100898.77
2017-09-16T14:03:55.195Z,100898.12
2017-09-16T14:06:22.960Z,100892.92
2017-09-16T14:08:50.982Z,100895.75
2017-09-16T14:11:18.752Z,100892.52
2017-09-16T14:13:46.493Z,100894.06
2017-09-16T14:16:14.244Z,100895.02
2017-09-16T14:18:41.963Z,100894.74
2017-09-16T14:21:09.777Z,100896.34
2017-09-16T14:23:37.486Z,100893.16
2017-09-16T14:26:05.280Z,100897.55
2017-09-16T14:28:32.998Z,100894.61
2017-09-16T14:31:00.755Z,100902.02
2017-09-16T14:33:28.532Z,100899.42
2017-09-16T14:35:56.276Z,100900.95
2017-09-16T14:38:24.055Z,100902.36
2017-09-16T14:40:51.663Z,100906.50
2017-09-16T14:43:19.399Z,100904.42
2017-09-16T14:45:47.112Z,100900.58
2017-09-16T14:48:14.875Z,100910.05
2017-09-16T14:50:42.603Z,100913.41
2017-09-16T14:53:10.353Z,100904.06
2017-09-16T14:55:38.050Z,100908.09
2017-09-16T14:58:05.823Z,100906.46
2017-09-16T15:00:33.526Z,100906.43
2017-09-16T15:03:01.280Z,100907.93
2017-09-16T15:05:29.013Z,100916.23
2017-09-16T15:07:56.808Z,100913.11
2017-09-16T15:10:24.534Z,100916.84
2017-09-16T15:12:52.295Z,100913.70
2017-09-16T15:15:20.011Z,100911.73
2017-09-16T15:17:47.786Z,100915.98
2017-09-16T15:20:15.494Z,100915.47
2017-09-16T15:22:43.271Z,100915.45
2017-09-16T15:25:10.998Z,100913.92
2017-09-16T15:27:38.757Z,100922.05
2017-09-16T15:30:06.485Z,100926.63
2017-09-16T15:32:34.236Z,100921.89
2017-09-16T15:35:02.016Z,100917.06
2017-09-16T15:37:29.829Z,100921.34
2017-09-16T15:39:57.528Z,100919.03
2017-09-16T15:42:25.296Z,100922.67
2017-09-16T15:44:53.009Z,100925.06
2017-09-16T15:47:20.791Z,100925.14
2017-09-16T15:49:48.492Z,100925.33
2017-09-16T15:52:16.250Z,100933.46
2017-09-16T15:54:43.966Z,100938.69
2017-09-16T15:57:11.763Z,100936.94
2017-09-16T15:59:39.505Z,100937.22
2017-09-16T16:02:07.318Z,100945.02
2017-09-16T16:04:35.033Z,100940.79
2017-09-16T16:07:02.806Z,100941.80
2017-09-16T16:09:30.566Z,100943.83
2017-09-16T16:11:58.281Z,100944.80
2017-09-16T16:14:26.065Z,100952.63
2017-09-16T16:16:53.783Z,100956.67
2017-09-16T16:19:21.535Z,100957.03
2017-09-16T16:21:49.253Z,100952.65
2017-09-16T16:24:17.067Z,100946.23
2017-09-16T16:26:44.772Z,100950.22
2017-09-16T16:29:12.545Z,100958.81
2017-09-16T16:31:40.303Z,100954.47
2017-09-16T16:34:08.064Z,100958.48
2017-09-16T16:36:35.818Z,100953.64
2017-09-16T16:39:03.598Z,100955.09
2017-09-16T16:41:31.207Z,100962.91
2017-09-16T16:43:58.997Z,100960.43
2017-09-16T16:46:26.705Z,100970.32
2017-09-16T16:48:54.442Z,100958.22
2017-09-16T16:51:22.152Z,100963.56
2017-09-16T16:53:49.934Z,100971.90
2017-09-16T16:56:17.644Z,100966.48
2017-09-16T16:58:45.419Z,100973.86
2017-09-16T17:01:13.036Z,100986.30
2017-09-16T17:03:40.695Z,100981.49
2017-09-16T17:06:08.413Z,100990.13
2017-09-16T17:08:36.254Z,100995.11
2017-09-16T17:11:04.924Z,100999.75
2017-09-16T17:13:32.745Z,100999.30
2017-09-16T17:16:00.479Z,101003.84
2017-09-16T17:18:28.264Z,101007.58
2017-09-16T17:20:55.991Z,101015.16
2017-09-16T17:23:23.767Z,101011.03
2017-09-16T17:25:51.477Z,101020.55
2017-09-16T17:28:19.225Z,101019.08
2017-09-16T17:30:46.923Z,101025.33
2017-09-16T17:33:14.730Z,101022.69
2017-09-16T17:35:42.631Z,101029.12
2017-09-16T17:38:10.447Z,101032.41
2017-09-16T17:40:38.172Z,101033.13
2017-09-16T17:43:06.167Z,101029.02
2017-09-16T17:45:33.913Z,101040.28
2017-09-16T17:48:01.703Z,101041.03
2017-09-16T17:50:29.397Z,101039.11
2017-09-16T17:52:57.173Z,101041.75
2017-09-16T17:55:24.922Z,101039.94
2017-09-16T17:57:52.649Z,101042.70
2017-09-16T18:00:20.446Z,101039.61
2017-09-16T18:02:48.150Z,101044.29
2017-09-16T18:05:15.895Z,101053.39
2017-09-16T18:07:43.597Z,101045.91
2017-09-16T18:10:11.355Z,101052.41
2017-09-16T18:12:39.048Z,101053.55
2017-09-16T18:15:06.820Z,101052.79
2017-09-16T18:17:34.535Z,101054.03
2017-09-16T18:20:02.297Z,101062.63
2017-09-16T18:22:30.004Z,101068.85
2017-09-16T18:24:57.793Z,101063.63
2017-09-16T18:27:25.496Z,101075.71
2017-09-16T18:29:53.274Z,101069.95
2017-09-16T18:32:20.993Z,101064.98
2017-09-16T18:34:48.741Z,101069.11
2017-09-16T18:37:16.481Z,101070.24
2017-09-16T18:39:44.232Z,101073.53
2017-09-16T18:42:11.962Z,101072.95
2017-09-16T18:44:39.727Z,101073.58
2017-09-16T18:47:07.463Z,101079.99
2017-09-16T18:49:35.199Z,101087.11
2017-09-16T18:52:02.907Z,101084.00
2017-09-16T18:54:30.573Z,101083.67
2017-09-16T18:56:58.241Z,101083.89
2017-09-16T18:59:26.046Z,101090.95
2017-09-16T19:01:53.704Z,101090.93
2017-09-16T19:04:21.474Z,101086.55
2017-09-16T19:06:49.159Z,101094.91
2017-09-16T19:09:16.942Z,101095.50
2017-09-16T19:11:44.636Z,101099.09
2017-09-16T19:14:12.407Z,101097.97
2017-09-16T19:16:40.100Z,101099.72
2017-09-16T19:19:07.902Z,101098.32
2017-09-16T19:21:35.629Z,101099.09
2017-09-16T19:24:03.413Z,101098.92
2017-09-16T19:26:31.133Z,101099.31
2017-09-16T19:28:58.898Z,101098.37
2017-09-16T19:31:26.614Z,101099.77
2017-09-16T19:33:54.367Z,101099.05
2017-09-16T19:36:22.112Z,101094.53
2017-09-16T19:38:49.809Z,101100.23
2017-09-16T19:41:17.572Z,101098.77
2017-09-16T19:43:45.205Z,101106.81
2017-09-16T19:46:12.948Z,101105.75
2017-09-16T19:48:40.687Z,101111.56
2017-09-16T19:51:09.226Z,101106.96
2017-09-16T19:53:36.939Z,101115.25
2017-09-16T19:56:04.646Z,101108.84
2017-09-16T19:58:32.395Z,101111.06
2017-09-16T20:01:00.185Z,101113.17
2017-09-16T20:03:27.905Z,101113.50
2017-09-16T20:05:55.659Z,101114.39
2017-09-16T20:08:23.417Z,101117.03
2017-09-16T20:10:51.163Z,101119.55
2017-09-16T20:13:18.878Z,101114.93
2017-09-16T20:15:47.537Z,101111.37
2017-09-16T20:18:15.269Z,101125.02
2017-09-16T20:20:43.029Z,101116.71
2017-09-16T20:23:10.737Z,101120.24
2017-09-16T20:25:38.499Z,101119.09
2017-09-16T20:28:06.184Z,101125.97
2017-09-16T20:30:33.945Z,101127.84
2017-09-16T20:33:01.668Z,101126.32
2017-09-16T20:35:29.500Z,101124.80
2017-09-16T20:37:57.226Z,101128.06
2017-09-16T20:40:24.956Z,101130.14
2017-09-16T20:42:52.713Z,101137.76
2017-09-16T20:45:20.375Z,101138.47
2017-09-16T20:47:48.070Z,101142.74
2017-09-16T20:50:15.814Z,101141.70
2017-09-16T20:52:43.516Z,101140.31
2017-09-16T20:55:11.293Z,101142.13
2017-09-16T20:57:38.985Z,101143.70
2017-09-16T21:00:06.762Z,101147.39
2017-09-16T21:02:34.504Z,101154.03
2017-09-16T21:05:02.256Z,101150.94
2017-09-16T21:07:29.959Z,101146.45
2017-09-16T21:09:57.702Z,101151.36
2017-09-16T21:12:25.462Z,101155.08
2017-09-16T21:14:53.225Z,101152.97
2017-09-16T21:17:20.909Z,101152.14
2017-09-16T21:19:48.614Z,101151.13
2017-09-16T21:22:16.355Z,101159.17
2017-09-16T21:24:44.071Z,101151.26
2017-09-16T21:27:11.711Z,101156.27
2017-09-16T21:29:39.406Z,101159.34
2017-09-16T21:32:07.151Z,101162.87
2017-09-16T21:34:34.886Z,101170.62
2017-09-16T21:37:02.679Z,101164.76
2017-09-16T21:39:30.278Z,101173.06
2017-09-16T21:41:58.056Z,101170.53
2017-09-16T21:44:25.655Z,101167.37
2017-09-16T21:46:53.370Z,101169.61
2017-09-16T21:49:21.055Z,101162.92
2017-09-16T21:51:48.810Z,101171.66
2017-09-16T21:54:16.521Z,101171.70
2017-09-16T21:56:44.267Z,101170.66
2017-09-16T21:59:11.945Z,101169.41
2017-09-16T22:01:39.661Z,101168.78
2017-09-16T22:04:07.334Z,101168.63
2017-09-16T22:06:35.078Z,101166.72
2017-09-16T22:09:02.791Z,101170.71
2017-09-16T22:11:30.540Z,101168.31
2017-09-16T22:13:58.230Z,101176.33
2017-09-16T22:16:25.980Z,101173.59
2017-09-16T22:18:53.691Z,101171.70
2017-09-16T22:21:21.434Z,101172.69
2017-09-16T22:23:49.140Z,101173.61
2017-09-16T22:26:16.889Z,101177.34
2017-09-16T22:28:44.567Z,101176.44
2017-09-16T22:31:12.294Z,101178.59
2017-09-16T22:33:39.984Z,101183.73
2017-09-16T22:36:07.629Z,101184.01
2017-09-16T22:38:35.308Z,101178.10
2017-09-16T22:41:03.044Z,101187.19
2017-09-16T22:43:30.716Z,101181.91
2017-09-16T22:45:58.440Z,101180.36
2017-09-16T22:48:26.108Z,101177.94
2017-09-16T22:50:53.857Z,101178.55
2017-09-16T22:53:21.558Z,101180.40
2017-09-16T22:55:49.281Z,101179.45
2017-09-16T22:58:16.980Z,101186.72
2017-09-16T23:00:44.662Z,101185.05
2017-09-16T23:03:12.400Z,101188.80
2017-09-16T23:05:40.096Z,101183.11
2017-09-16T23:08:07.847Z,101184.20
2017-09-16T23:10:35.518Z,101184.11
2017-09-16T23:13:03.258Z,101180.83
2017-09-16T23:15:30.942Z,101181.70
2017-09-16T23:17:58.667Z,101187.39
2017-09-16T23:20:26.374Z,101180.08
2017-09-16T23:22:54.089Z,101186.39
2017-09-16T23:25:21.789Z,101183.20
2017-09-16T23:27:49.446Z,101176.00
2017-09-16T23:30:17.163Z,101179.52
2017-09-16T23:32:44.879Z,101174.41
2017-09-16T23:35:12.581Z,101178.28
2017-09-16T23:37:40.359Z,101182.58
2017-09-16T23:40:08.024Z,101177.77
2017-09-16T23:42:35.759Z,101179.78
2017-09-16T23:45:03.438Z,101179.30
2017-09-16T23:47:31.169Z,101186.36
2017-09-16T23:49:58.860Z,101179.87
2017-09-16T23:52:26.608Z,101191.58
2017-09-16T23:54:54.290Z,101193.96
2017-09-16T23:57:22.039Z,101194.53
2017-09-16T23:59:49.715Z,101190.77
